Yuho Maru No.3 — JD2491 — position and weather

sailwx.info

Track history (hours):
 
Tides and Currents Weather Stations Pressure Air Temp Water Temp Dewpoint Dewpoint Depression Visibility Wind Speed Wind Dir Waves Ship Positions

Yuho Maru No.3

Last reported at 2015-May-26 01:33 UTC. Time now 2015-May-26 01:46 UTC.
Position N 35°32' E 140°03'.

Length 65 m; draft 4.2 m.

Type: Tanker. MMSI: 431000336.

Date/timePositionNaut miles runAvg speedWind from/ knotsBaromVisibWave heightAir tempDewpointWater temp
2015-May-26 01:33N 35°32' E 140°03'0 0.0
2015-May-26 00:33N 35°32' E 140°03'4 3.8
2015-May-25 23:32N 35°32' E 139°58'7 6.8
2015-May-25 22:34N 35°31' E 139°50'0 0.0
2015-May-25 21:33N 35°31' E 139°50'0 0.0
2015-May-25 20:33N 35°31' E 139°50'0 0.0
2015-May-25 19:33N 35°31' E 139°50'0 0.0
2015-May-25 18:34N 35°31' E 139°50'0 0.0
2015-May-25 17:34N 35°31' E 139°50'0 0.0
2015-May-25 16:34N 35°31' E 139°50'0 0.0
2015-May-25 15:33N 35°31' E 139°50'0 0.0
2015-May-25 14:33N 35°31' E 139°50'0 0.0
2015-May-25 13:34N 35°31' E 139°50'0 0.0
2015-May-25 12:33N 35°31' E 139°50'0 0.0
2015-May-25 11:33N 35°31' E 139°50'0 0.0
2015-May-25 10:33N 35°31' E 139°50'6 5.7
2015-May-25 09:33N 35°27' E 139°45'0 0.0
2015-May-25 08:29N 35°27' E 139°45'0 0.0
2015-May-25 07:33N 35°27' E 139°45'0 0.0
2015-May-25 06:33N 35°27' E 139°45'0 0.0
2015-May-25 05:33N 35°27' E 139°45'4 3.5
2015-May-25 04:33N 35°29' E 139°49'2 2.4
2015-May-25 03:33N 35°31' E 139°46'1 1.0
2015-May-25 02:33N 35°32' E 139°46'0 0.0
2015-May-25 01:33N 35°32' E 139°46'0 0.0
2015-May-25 00:33N 35°32' E 139°46'0 0.0
2015-May-24 23:33N 35°32' E 139°46'0 0.0
2015-May-24 22:34N 35°32' E 139°46'3 3.0
2015-May-24 21:34N 35°30' E 139°49'1111.2
2015-May-24 20:33N 35°35' E 140°02'4 4.0
2015-May-24 19:33N 35°36' E 140°06'0 0.0
2015-May-24 18:33N 35°36' E 140°06'0 0.0
2015-May-24 17:33N 35°36' E 140°06'0 0.0
2015-May-24 16:33N 35°36' E 140°06'0 0.0
2015-May-24 15:33N 35°36' E 140°06'0 0.0
2015-May-24 14:33N 35°36' E 140°06'0 0.0
2015-May-24 13:34N 35°36' E 140°06'0 0.0
2015-May-24 12:34N 35°36' E 140°06'0 0.0
2015-May-24 11:33N 35°36' E 140°06'0 0.0
2015-May-24 10:33N 35°36' E 140°06'0 0.0
2015-May-24 09:33N 35°36' E 140°06'0 0.0
2015-May-24 08:33N 35°36' E 140°06'0 0.0
2015-May-24 07:33N 35°36' E 140°06'0 0.0
2015-May-24 06:33N 35°36' E 140°06'0 0.0
2015-May-24 05:33N 35°36' E 140°06'0 0.0
2015-May-24 04:33N 35°36' E 140°06'3 2.8
2015-May-24 03:33N 35°35' E 140°03'5 5.0
2015-May-24 02:34N 35°31' E 140°00'1 1.4
2015-May-24 01:34N 35°30' E 140°02'0 0.0
2015-May-24 00:33N 35°30' E 140°02'0 0.0
2015-May-23 23:33N 35°30' E 140°02'4 3.8
2015-May-23 22:33N 35°31' E 139°58'7 6.6
2015-May-23 21:34N 35°28' E 139°51'1211.5
2015-May-23 20:33N 35°17' E 139°45'1211.7
2015-May-23 19:33N 35°05' E 139°43'1612.3
2015-May-23 18:14N 34°55' E 139°28'  
2015-May-19 19:32N 34°07' E 134°45'  
2015-May-16 07:14N 34°03' E 135°01'812.0
2015-May-16 06:33N 34°11' E 134°60'1712.8
2015-May-16 05:15N 34°28' E 135°02'812.0
2015-May-16 04:33N 34°36' E 135°02'1414.3
2015-May-16 03:33N 34°41' E 134°46'  
Track history (hours):
 
Tides and Currents Weather Stations Pressure Air Temp Water Temp Dewpoint Dewpoint Depression Visibility Wind Speed Wind Dir Waves Ship Positions

Yuho Maru No.3

Last reported at 2015-May-26 01:33 UTC. Time now 2015-May-26 01:46 UTC.
Position N 35°32' E 140°03'.

Length 65 m; draft 4.2 m.

Type: Tanker. MMSI: 431000336.

Date/timePositionNaut miles runAvg speedWind from/ knotsBaromVisibWave heightAir tempDewpointWater temp
2015-May-26 01:33N 35°32' E 140°03'0 0.0
2015-May-26 00:33N 35°32' E 140°03'4 3.8
2015-May-25 23:32N 35°32' E 139°58'7 6.8
2015-May-25 22:34N 35°31' E 139°50'0 0.0
2015-May-25 21:33N 35°31' E 139°50'0 0.0
2015-May-25 20:33N 35°31' E 139°50'0 0.0
2015-May-25 19:33N 35°31' E 139°50'0 0.0
2015-May-25 18:34N 35°31' E 139°50'0 0.0
2015-May-25 17:34N 35°31' E 139°50'0 0.0
2015-May-25 16:34N 35°31' E 139°50'0 0.0
2015-May-25 15:33N 35°31' E 139°50'0 0.0
2015-May-25 14:33N 35°31' E 139°50'0 0.0
2015-May-25 13:34N 35°31' E 139°50'0 0.0
2015-May-25 12:33N 35°31' E 139°50'0 0.0
2015-May-25 11:33N 35°31' E 139°50'0 0.0
2015-May-25 10:33N 35°31' E 139°50'6 5.7
2015-May-25 09:33N 35°27' E 139°45'0 0.0
2015-May-25 08:29N 35°27' E 139°45'0 0.0
2015-May-25 07:33N 35°27' E 139°45'0 0.0
2015-May-25 06:33N 35°27' E 139°45'0 0.0
2015-May-25 05:33N 35°27' E 139°45'4 3.5
2015-May-25 04:33N 35°29' E 139°49'2 2.4
2015-May-25 03:33N 35°31' E 139°46'1 1.0
2015-May-25 02:33N 35°32' E 139°46'0 0.0
2015-May-25 01:33N 35°32' E 139°46'0 0.0
2015-May-25 00:33N 35°32' E 139°46'0 0.0
2015-May-24 23:33N 35°32' E 139°46'0 0.0
2015-May-24 22:34N 35°32' E 139°46'3 3.0
2015-May-24 21:34N 35°30' E 139°49'1111.2
2015-May-24 20:33N 35°35' E 140°02'4 4.0
2015-May-24 19:33N 35°36' E 140°06'0 0.0
2015-May-24 18:33N 35°36' E 140°06'0 0.0
2015-May-24 17:33N 35°36' E 140°06'0 0.0
2015-May-24 16:33N 35°36' E 140°06'0 0.0
2015-May-24 15:33N 35°36' E 140°06'0 0.0
2015-May-24 14:33N 35°36' E 140°06'0 0.0
2015-May-24 13:34N 35°36' E 140°06'0 0.0
2015-May-24 12:34N 35°36' E 140°06'0 0.0
2015-May-24 11:33N 35°36' E 140°06'0 0.0
2015-May-24 10:33N 35°36' E 140°06'0 0.0
2015-May-24 09:33N 35°36' E 140°06'0 0.0
2015-May-24 08:33N 35°36' E 140°06'0 0.0
2015-May-24 07:33N 35°36' E 140°06'0 0.0
2015-May-24 06:33N 35°36' E 140°06'0 0.0
2015-May-24 05:33N 35°36' E 140°06'0 0.0
2015-May-24 04:33N 35°36' E 140°06'3 2.8
2015-May-24 03:33N 35°35' E 140°03'5 5.0
2015-May-24 02:34N 35°31' E 140°00'1 1.4
2015-May-24 01:34N 35°30' E 140°02'0 0.0
2015-May-24 00:33N 35°30' E 140°02'0 0.0
2015-May-23 23:33N 35°30' E 140°02'4 3.8
2015-May-23 22:33N 35°31' E 139°58'7 6.6
2015-May-23 21:34N 35°28' E 139°51'1211.5
2015-May-23 20:33N 35°17' E 139°45'1211.7
2015-May-23 19:33N 35°05' E 139°43'1612.3
2015-May-23 18:14N 34°55' E 139°28'  
2015-May-19 19:32N 34°07' E 134°45'  
2015-May-16 07:14N 34°03' E 135°01'812.0
2015-May-16 06:33N 34°11' E 134°60'1712.8
2015-May-16 05:15N 34°28' E 135°02'812.0
2015-May-16 04:33N 34°36' E 135°02'1414.3
2015-May-16 03:33N 34°41' E 134°46'  

Dump ship's entire track history